createdAt,value
2018-12-24T00:00:48.091Z,5.07
2018-12-24T00:03:17.681Z,5.37
2018-12-24T00:05:47.173Z,5.27
2018-12-24T00:08:16.832Z,5.53
2018-12-24T00:10:46.593Z,5.53
2018-12-24T00:13:16.097Z,5.10
2018-12-24T00:15:45.623Z,5.37
2018-12-24T00:18:15.201Z,4.97
2018-12-24T00:20:44.913Z,5.90
2018-12-24T00:23:14.580Z,6.63
2018-12-24T00:25:44.252Z,6.73
2018-12-24T00:28:13.803Z,6.57
2018-12-24T00:30:43.315Z,6.97
2018-12-24T00:33:12.815Z,6.63
2018-12-24T00:35:42.326Z,6.87
2018-12-24T00:38:11.818Z,7.03
2018-12-24T00:40:41.272Z,6.60
2018-12-24T00:43:10.887Z,6.77
2018-12-24T00:45:40.526Z,5.87
2018-12-24T00:48:09.989Z,5.97
2018-12-24T00:50:39.745Z,5.57
2018-12-24T00:53:09.268Z,5.10
2018-12-24T00:55:38.697Z,5.63
2018-12-24T00:58:08.217Z,5.07
2018-12-24T01:00:37.724Z,6.37
2018-12-24T01:03:07.322Z,6.63
2018-12-24T01:05:36.926Z,8.63
2018-12-24T01:08:06.383Z,9.20
2018-12-24T01:10:36.053Z,10.97
2018-12-24T01:13:05.618Z,10.87
2018-12-24T01:15:35.184Z,9.83
2018-12-24T01:18:04.659Z,11.30
2018-12-24T01:20:34.235Z,10.67
2018-12-24T01:23:03.739Z,12.07
2018-12-24T01:25:33.249Z,10.33
2018-12-24T01:28:02.878Z,10.27
2018-12-24T01:30:32.357Z,8.63
2018-12-24T01:33:01.905Z,9.00
2018-12-24T01:35:31.439Z,9.50
2018-12-24T01:38:00.899Z,9.00
2018-12-24T01:40:30.398Z,9.50
2018-12-24T01:43:00.017Z,8.60
2018-12-24T01:45:29.591Z,8.53
2018-12-24T01:47:59.158Z,8.47
2018-12-24T01:50:28.764Z,7.13
2018-12-24T01:52:58.220Z,7.17
2018-12-24T01:55:27.690Z,7.83
2018-12-24T01:57:57.207Z,7.23
2018-12-24T02:00:26.731Z,7.67
2018-12-24T02:02:56.361Z,8.07
2018-12-24T02:05:26.078Z,7.57
2018-12-24T02:07:55.515Z,7.97
2018-12-24T02:10:25.073Z,8.70
2018-12-24T02:12:54.713Z,9.10
2018-12-24T02:15:24.172Z,9.40
2018-12-24T02:17:53.711Z,9.47
2018-12-24T02:20:23.284Z,9.50
2018-12-24T02:22:52.821Z,8.53
2018-12-24T02:25:22.346Z,8.17
2018-12-24T02:27:51.905Z,8.17
2018-12-24T02:30:21.402Z,7.27
2018-12-24T02:32:50.943Z,7.70
2018-12-24T02:35:20.437Z,7.30
2018-12-24T02:37:49.889Z,8.03
2018-12-24T02:40:19.571Z,7.97
2018-12-24T02:42:52.574Z,6.97
2018-12-24T02:45:20.441Z,7.30
2018-12-24T02:47:49.987Z,8.07
2018-12-24T02:50:19.568Z,10.50
2018-12-24T02:52:49.070Z,8.87
2018-12-24T02:55:18.557Z,8.67
2018-12-24T02:57:48.167Z,10.30
2018-12-24T03:00:17.708Z,9.90
2018-12-24T03:02:47.258Z,8.80
2018-12-24T03:05:16.825Z,12.00
2018-12-24T03:07:46.292Z,10.40
2018-12-24T03:10:15.840Z,10.83
2018-12-24T03:12:45.514Z,10.83
2018-12-24T03:15:14.989Z,10.53
2018-12-24T03:17:44.515Z,11.30
2018-12-24T03:20:14.134Z,11.60
2018-12-24T03:22:43.695Z,11.83
2018-12-24T03:25:13.204Z,12.67
2018-12-24T03:27:42.791Z,11.93
2018-12-24T03:30:12.376Z,11.13
2018-12-24T03:32:41.889Z,12.47
2018-12-24T03:35:11.364Z,10.97
2018-12-24T03:37:40.831Z,10.83
2018-12-24T03:40:10.342Z,11.70
2018-12-24T03:42:40.058Z,11.20
2018-12-24T03:45:09.681Z,11.97
2018-12-24T03:47:39.232Z,11.70
2018-12-24T03:50:08.943Z,11.77
2018-12-24T03:52:38.438Z,11.03
2018-12-24T03:55:07.896Z,10.00
2018-12-24T03:57:37.634Z,9.00
2018-12-24T04:00:07.725Z,8.70
2018-12-24T04:02:37.251Z,9.70
2018-12-24T04:05:06.881Z,8.60
2018-12-24T04:07:36.351Z,9.00
2018-12-24T04:10:05.947Z,7.37
2018-12-24T04:12:35.453Z,8.30
2018-12-24T04:15:05.017Z,8.03
2018-12-24T04:17:34.573Z,9.03
2018-12-24T04:20:04.206Z,8.33
2018-12-24T04:22:33.715Z,8.63
2018-12-24T04:25:03.279Z,8.33
2018-12-24T04:27:41.487Z,7.60
2018-12-24T04:30:04.058Z,8.03
2018-12-24T04:32:33.585Z,8.83
2018-12-24T04:35:03.094Z,7.93
2018-12-24T04:37:32.548Z,8.07
2018-12-24T04:40:02.072Z,8.17
2018-12-24T04:42:31.614Z,8.10
2018-12-24T04:45:01.179Z,8.13
2018-12-24T04:47:30.795Z,8.43
2018-12-24T04:50:00.381Z,8.43
2018-12-24T04:52:29.962Z,8.47
2018-12-24T04:54:59.442Z,9.00
2018-12-24T04:57:29.021Z,7.83
2018-12-24T04:59:58.599Z,8.50
2018-12-24T05:02:28.110Z,7.90
2018-12-24T05:04:57.698Z,6.97
2018-12-24T05:07:27.161Z,7.40
2018-12-24T05:09:56.671Z,7.03
2018-12-24T05:12:26.232Z,6.73
2018-12-24T05:14:55.638Z,6.23
2018-12-24T05:17:25.137Z,6.30
2018-12-24T05:19:54.753Z,7.70
2018-12-24T05:22:24.270Z,7.30
2018-12-24T05:24:53.780Z,7.30
2018-12-24T05:27:23.338Z,6.90
2018-12-24T05:29:52.880Z,7.50
2018-12-24T05:32:22.367Z,6.70
2018-12-24T05:34:51.835Z,6.90
2018-12-24T05:37:21.286Z,7.50
2018-12-24T05:39:50.726Z,6.60
2018-12-24T05:42:20.287Z,7.83
2018-12-24T05:44:49.785Z,6.77
2018-12-24T05:47:19.411Z,7.37
2018-12-24T05:49:48.939Z,6.67
2018-12-24T05:52:18.572Z,7.00
2018-12-24T05:54:48.038Z,7.40
2018-12-24T05:57:17.599Z,6.63
2018-12-24T05:59:47.229Z,6.83
2018-12-24T06:02:16.883Z,7.13
2018-12-24T06:04:46.487Z,6.57
2018-12-24T06:07:16.029Z,7.10
2018-12-24T06:09:45.529Z,6.50
2018-12-24T06:12:15.112Z,6.73
2018-12-24T06:14:44.592Z,7.23
2018-12-24T06:17:14.048Z,6.80
2018-12-24T06:19:43.686Z,7.03
2018-12-24T06:22:13.215Z,7.10
2018-12-24T06:24:42.812Z,7.40
2018-12-24T06:27:12.486Z,6.37
2018-12-24T06:29:41.964Z,6.90
2018-12-24T06:32:11.459Z,6.80
2018-12-24T06:34:41.011Z,7.53
2018-12-24T06:37:10.530Z,7.77
2018-12-24T06:39:39.998Z,6.63
2018-12-24T06:42:09.550Z,7.10
2018-12-24T06:44:39.024Z,7.83
2018-12-24T06:47:08.499Z,6.80
2018-12-24T06:49:38.142Z,7.67
2018-12-24T06:52:07.735Z,7.83
2018-12-24T06:54:37.218Z,7.87
2018-12-24T06:57:06.926Z,8.20
2018-12-24T06:59:36.360Z,8.57
2018-12-24T07:02:05.995Z,7.97
2018-12-24T07:04:35.507Z,8.87
2018-12-24T07:07:05.040Z,8.53
2018-12-24T07:09:34.627Z,8.20
2018-12-24T07:12:04.210Z,9.47
2018-12-24T07:14:33.677Z,9.33
2018-12-24T07:17:03.134Z,8.50
2018-12-24T07:19:32.777Z,8.70
2018-12-24T07:22:02.590Z,11.40
2018-12-24T07:24:32.167Z,10.93
2018-12-24T07:27:01.738Z,11.40
2018-12-24T07:29:31.329Z,20.67
2018-12-24T07:32:01.101Z,15.50
2018-12-24T07:34:32.537Z,17.63
2018-12-24T07:37:02.100Z,17.73
2018-12-24T07:39:31.816Z,18.10
2018-12-24T07:42:01.523Z,15.27
2018-12-24T07:44:31.175Z,11.73
2018-12-24T07:47:00.652Z,11.20
2018-12-24T07:49:30.488Z,7.43
2018-12-24T07:52:00.245Z,8.07
2018-12-24T07:54:30.933Z,8.07
2018-12-24T07:57:00.771Z,8.17
2018-12-24T07:59:30.452Z,8.80
2018-12-24T08:02:00.028Z,8.10
2018-12-24T08:04:30.012Z,8.40
2018-12-24T08:06:59.824Z,8.63
2018-12-24T08:09:29.357Z,8.93
2018-12-24T08:11:58.979Z,8.60
2018-12-24T08:14:33.010Z,8.00
2018-12-24T08:16:59.583Z,9.10
2018-12-24T08:19:29.339Z,10.40
2018-12-24T08:21:59.204Z,10.37
2018-12-24T08:24:28.903Z,10.53
2018-12-24T08:26:58.654Z,11.67
2018-12-24T08:29:28.242Z,12.00
2018-12-24T08:31:57.889Z,13.13
2018-12-24T08:34:27.436Z,12.33
2018-12-24T08:36:56.895Z,12.23
2018-12-24T08:39:26.559Z,13.13
2018-12-24T08:41:56.318Z,14.20
2018-12-24T08:44:25.952Z,14.03
2018-12-24T08:46:55.687Z,13.43
2018-12-24T08:49:25.568Z,10.17
2018-12-24T08:51:55.401Z,9.43
2018-12-24T08:54:24.874Z,12.07
2018-12-24T08:56:54.505Z,12.20
2018-12-24T08:59:24.186Z,14.10
2018-12-24T09:01:53.812Z,15.10
2018-12-24T09:04:23.438Z,15.37
2018-12-24T09:06:53.102Z,20.03
2018-12-24T09:09:22.545Z,20.10
2018-12-24T09:11:52.316Z,17.53
2018-12-24T09:14:21.865Z,19.37
2018-12-24T09:16:51.352Z,19.37
2018-12-24T09:19:21.133Z,21.90
2018-12-24T09:21:50.811Z,28.27
2018-12-24T09:24:20.379Z,33.97
2018-12-24T09:26:50.048Z,37.87
2018-12-24T09:29:19.788Z,29.67
2018-12-24T09:31:49.522Z,26.97
2018-12-24T09:34:19.104Z,24.37
2018-12-24T09:36:48.872Z,21.77
2018-12-24T09:39:18.380Z,21.23
2018-12-24T09:41:48.217Z,17.47
2018-12-24T09:44:17.865Z,15.80
2018-12-24T09:46:47.545Z,18.40
2018-12-24T09:49:17.257Z,16.83
2018-12-24T09:51:46.892Z,11.57
2018-12-24T09:54:16.433Z,12.50
2018-12-24T09:56:45.931Z,12.77
2018-12-24T09:59:15.710Z,13.10
2018-12-24T10:01:45.407Z,13.23
2018-12-24T10:04:19.818Z,13.37
2018-12-24T10:06:49.454Z,12.87
2018-12-24T10:09:18.973Z,12.60
2018-12-24T10:11:48.599Z,11.17
2018-12-24T10:14:18.083Z,10.37
2018-12-24T10:16:47.579Z,10.27
2018-12-24T10:19:17.246Z,9.07
2018-12-24T10:21:46.869Z,9.73
2018-12-24T10:24:16.768Z,9.27
2018-12-24T10:26:46.452Z,9.40
2018-12-24T10:29:16.204Z,9.33
2018-12-24T10:31:45.679Z,9.77
2018-12-24T10:34:15.208Z,10.73
2018-12-24T10:36:44.695Z,11.60
2018-12-24T10:39:14.154Z,14.27
2018-12-24T10:41:43.786Z,14.60
2018-12-24T10:44:13.386Z,13.53
2018-12-24T10:46:43.022Z,16.87
2018-12-24T10:49:12.791Z,16.20
2018-12-24T10:51:42.445Z,13.57
2018-12-24T10:54:11.953Z,13.80
2018-12-24T10:56:41.550Z,12.53
2018-12-24T10:59:11.233Z,12.30
2018-12-24T11:01:40.987Z,12.43
2018-12-24T11:04:10.629Z,13.20
2018-12-24T11:06:40.217Z,12.33
2018-12-24T11:09:09.687Z,11.63
2018-12-24T11:11:39.684Z,16.43
2018-12-24T11:14:09.115Z,12.63
2018-12-24T11:16:38.611Z,12.07
2018-12-24T11:19:08.177Z,11.97
2018-12-24T11:21:37.809Z,12.37
2018-12-24T11:24:07.425Z,11.27
2018-12-24T11:26:37.045Z,11.80
2018-12-24T11:29:06.696Z,11.20
2018-12-24T11:31:36.378Z,10.37
2018-12-24T11:34:05.864Z,11.43
2018-12-24T11:36:35.325Z,11.67
2018-12-24T11:39:05.550Z,11.03
2018-12-24T11:41:35.136Z,12.83
2018-12-24T11:44:04.838Z,11.00
2018-12-24T11:46:34.434Z,11.60
2018-12-24T11:49:04.132Z,10.80
2018-12-24T11:51:33.902Z,11.57
2018-12-24T11:54:03.455Z,11.10
2018-12-24T11:56:33.061Z,11.60
2018-12-24T11:59:02.791Z,12.10
2018-12-24T12:01:32.494Z,11.40
2018-12-24T12:04:02.266Z,13.07
2018-12-24T12:06:32.054Z,11.70
2018-12-24T12:09:01.591Z,11.57
2018-12-24T12:11:31.281Z,10.67
2018-12-24T12:14:00.756Z,10.07
2018-12-24T12:16:31.749Z,10.10
2018-12-24T12:19:01.712Z,10.77
2018-12-24T12:21:31.400Z,10.23
2018-12-24T12:24:01.176Z,10.87
2018-12-24T12:26:30.794Z,9.67
2018-12-24T12:29:00.571Z,9.57
2018-12-24T12:31:30.106Z,9.70
2018-12-24T12:33:59.626Z,10.30
2018-12-24T12:36:29.084Z,9.27
2018-12-24T12:38:58.553Z,10.50
2018-12-24T12:41:28.171Z,10.47
2018-12-24T12:43:57.731Z,11.10
2018-12-24T12:46:27.314Z,10.80
2018-12-24T12:48:56.952Z,11.13
2018-12-24T12:51:26.547Z,10.67
2018-12-24T12:53:56.017Z,10.90
2018-12-24T12:56:25.570Z,10.80
2018-12-24T12:58:55.144Z,10.93
2018-12-24T13:01:24.722Z,11.07
2018-12-24T13:03:54.388Z,12.23
2018-12-24T13:06:24.000Z,10.97
2018-12-24T13:08:53.468Z,11.73
2018-12-24T13:11:23.158Z,11.13
2018-12-24T13:13:52.672Z,11.60
2018-12-24T13:16:22.234Z,12.03
2018-12-24T13:20:41.661Z,12.97
2018-12-24T13:23:11.102Z,13.03
2018-12-24T13:25:40.268Z,12.20
2018-12-24T13:28:09.550Z,13.17
2018-12-24T13:30:38.722Z,13.43
2018-12-24T13:33:07.950Z,13.67
2018-12-24T13:35:37.228Z,14.47
2018-12-24T13:38:06.449Z,14.73
2018-12-24T13:40:35.714Z,14.77
2018-12-24T13:43:05.078Z,16.23
2018-12-24T13:45:34.287Z,22.43
2018-12-24T13:48:03.554Z,23.70
2018-12-24T13:50:32.986Z,29.07
2018-12-24T13:53:02.194Z,31.03
2018-12-24T13:55:31.311Z,32.40
2018-12-24T13:58:00.573Z,31.07
2018-12-24T14:00:29.752Z,29.13
2018-12-24T14:02:59.070Z,26.73
2018-12-24T14:05:28.279Z,25.53
2018-12-24T14:07:57.503Z,25.90
2018-12-24T14:10:26.631Z,25.03
2018-12-24T14:12:55.931Z,25.73
2018-12-24T14:15:25.201Z,23.53
2018-12-24T14:17:54.594Z,23.27
2018-12-24T14:20:23.962Z,20.97
2018-12-24T14:22:53.229Z,21.50
2018-12-24T14:25:22.429Z,21.60
2018-12-24T14:27:51.863Z,23.60
2018-12-24T14:30:21.315Z,26.73
2018-12-24T14:32:50.664Z,31.73
2018-12-24T14:35:19.805Z,25.20
2018-12-24T14:37:49.072Z,24.87
2018-12-24T14:40:18.197Z,23.00
2018-12-24T14:42:47.603Z,22.20
2018-12-24T14:45:16.831Z,20.43
2018-12-24T14:47:46.062Z,18.50
2018-12-24T14:50:15.466Z,15.90
2018-12-24T14:52:44.719Z,15.50
2018-12-24T14:55:13.866Z,13.47
2018-12-24T14:57:43.125Z,13.03
2018-12-24T15:00:12.311Z,12.53
2018-12-24T15:02:41.636Z,13.13
2018-12-24T15:05:10.893Z,11.93
2018-12-24T15:07:40.156Z,13.53
2018-12-24T15:10:09.290Z,14.77
2018-12-24T15:12:38.633Z,14.70
2018-12-24T15:15:07.933Z,15.37
2018-12-24T15:17:37.372Z,13.87
2018-12-24T15:20:07.077Z,16.00
2018-12-24T15:22:36.368Z,15.33
2018-12-24T15:25:05.856Z,16.03
2018-12-24T15:27:35.124Z,14.83
2018-12-24T15:30:04.618Z,15.13
2018-12-24T15:32:33.915Z,14.57
2018-12-24T15:35:03.139Z,13.87
2018-12-24T15:37:32.614Z,14.80
2018-12-24T15:40:01.762Z,21.90
2018-12-24T15:42:32.198Z,25.50
2018-12-24T15:45:01.545Z,26.33
2018-12-24T15:47:30.937Z,25.90
2018-12-24T15:50:00.261Z,28.13
2018-12-24T15:52:29.704Z,29.20
2018-12-24T15:54:58.899Z,28.87
2018-12-24T15:57:28.745Z,29.87
2018-12-24T15:59:58.231Z,31.87
2018-12-24T16:02:27.766Z,29.47
2018-12-24T16:04:57.052Z,29.00
2018-12-24T16:07:26.337Z,27.83
2018-12-24T16:09:55.432Z,26.93
2018-12-24T16:12:24.703Z,27.07
2018-12-24T16:14:53.800Z,27.30
2018-12-24T16:17:23.056Z,26.57
2018-12-24T16:19:52.350Z,26.67
2018-12-24T16:22:21.654Z,28.37
2018-12-24T16:24:51.175Z,26.50
2018-12-24T16:27:20.455Z,26.83
2018-12-24T16:29:49.696Z,26.50
2018-12-24T16:32:18.964Z,27.80
2018-12-24T16:34:48.148Z,27.63
2018-12-24T16:37:17.376Z,29.37
2018-12-24T16:39:46.827Z,30.47
2018-12-24T16:42:16.020Z,33.13
2018-12-24T16:44:45.381Z,32.80
2018-12-24T16:47:15.080Z,28.93
2018-12-24T16:49:44.426Z,30.53
2018-12-24T16:52:13.661Z,29.03
2018-12-24T16:54:42.808Z,29.23
2018-12-24T16:57:12.099Z,28.53
2018-12-24T16:59:41.421Z,27.43
2018-12-24T17:02:10.543Z,27.23
2018-12-24T17:04:39.856Z,25.73
2018-12-24T17:07:09.084Z,25.67
2018-12-24T17:09:38.225Z,24.83
2018-12-24T17:12:07.473Z,27.80
2018-12-24T17:14:36.605Z,24.80
2018-12-24T17:17:07.881Z,24.93
2018-12-24T17:19:36.742Z,29.10
2018-12-24T17:22:06.130Z,35.63
2018-12-24T17:24:35.320Z,37.57
2018-12-24T17:27:04.629Z,42.00
2018-12-24T17:29:33.902Z,39.67
2018-12-24T17:32:03.240Z,42.23
2018-12-24T17:34:32.441Z,45.00
2018-12-24T17:37:01.574Z,52.67
2018-12-24T17:39:30.715Z,49.47
2018-12-24T17:42:00.166Z,43.27
2018-12-24T17:44:29.452Z,31.97
2018-12-24T17:46:58.829Z,29.00
2018-12-24T17:49:28.312Z,25.57
2018-12-24T17:51:57.504Z,22.97
2018-12-24T17:54:26.685Z,23.97
2018-12-24T17:56:55.973Z,21.87
2018-12-24T17:59:25.233Z,22.97
2018-12-24T18:01:54.588Z,27.97
2018-12-24T18:04:23.791Z,33.27
2018-12-24T18:06:52.995Z,27.10
2018-12-24T18:09:22.187Z,29.77
2018-12-24T18:11:51.425Z,30.27
2018-12-24T18:14:20.558Z,27.80
2018-12-24T18:16:49.692Z,23.07
2018-12-24T18:19:18.927Z,20.83
2018-12-24T18:21:48.284Z,14.67
2018-12-24T18:24:17.606Z,17.53
2018-12-24T18:26:47.012Z,14.37
2018-12-24T18:29:16.162Z,12.67
2018-12-24T18:31:45.588Z,11.00
2018-12-24T18:34:14.787Z,8.17
2018-12-24T18:36:44.131Z,6.97
2018-12-24T18:39:13.540Z,5.67
2018-12-24T18:41:42.823Z,5.00
2018-12-24T18:44:12.274Z,3.77
2018-12-24T18:46:41.570Z,1.50
2018-12-24T18:49:10.903Z,1.10
2018-12-24T18:51:40.172Z,1.30
2018-12-24T18:54:13.938Z,1.30
2018-12-24T18:56:43.112Z,1.13
2018-12-24T18:59:12.548Z,0.97
2018-12-24T19:01:42.073Z,0.90
2018-12-24T19:04:11.285Z,0.90
2018-12-24T19:06:40.692Z,0.93
2018-12-24T19:09:09.894Z,1.00
2018-12-24T19:11:39.148Z,1.60
2018-12-24T19:14:08.277Z,1.50
2018-12-24T19:16:37.498Z,1.10
2018-12-24T19:19:06.853Z,1.20
2018-12-24T19:21:43.738Z,1.10
2018-12-24T19:24:07.050Z,0.90
2018-12-24T19:26:36.343Z,1.10
2018-12-24T19:29:05.916Z,1.03
2018-12-24T19:31:35.288Z,1.27
2018-12-24T19:34:04.476Z,0.80
2018-12-24T19:36:35.919Z,0.80
2018-12-24T19:39:06.591Z,0.87
2018-12-24T19:41:35.840Z,0.90
2018-12-24T19:44:05.365Z,0.70
2018-12-24T19:46:34.761Z,0.80
2018-12-24T19:49:04.077Z,1.07
2018-12-24T19:51:33.466Z,1.10
2018-12-24T19:54:02.711Z,0.80
2018-12-24T19:56:32.266Z,1.00
2018-12-24T19:59:01.816Z,0.80
2018-12-24T20:01:31.557Z,0.87
2018-12-24T20:04:00.858Z,0.80
2018-12-24T20:06:30.067Z,0.90
2018-12-24T20:08:59.495Z,0.90
2018-12-24T20:11:28.711Z,0.90
2018-12-24T20:13:58.156Z,0.90
2018-12-24T20:16:27.589Z,1.00
2018-12-24T20:18:57.521Z,1.13
2018-12-24T20:21:26.878Z,0.90
2018-12-24T20:23:56.344Z,0.90
2018-12-24T20:26:25.793Z,1.10
2018-12-24T20:28:55.302Z,1.00
2018-12-24T20:31:24.776Z,1.23
2018-12-24T20:33:53.924Z,0.90
2018-12-24T20:36:23.318Z,0.90
2018-12-24T20:38:53.145Z,0.90
2018-12-24T20:41:22.535Z,0.90
2018-12-24T20:43:52.096Z,0.80
2018-12-24T20:46:21.850Z,0.93
2018-12-24T20:48:52.533Z,0.97
2018-12-24T20:51:22.068Z,0.70
2018-12-24T20:53:51.344Z,1.00
2018-12-24T20:56:20.539Z,0.80
2018-12-24T20:58:49.951Z,1.10
2018-12-24T21:01:19.455Z,1.10
2018-12-24T21:03:48.855Z,1.10
2018-12-24T21:06:18.126Z,1.07
2018-12-24T21:08:47.595Z,1.30
2018-12-24T21:11:17.071Z,0.90
2018-12-24T21:13:47.020Z,0.90
2018-12-24T21:16:16.546Z,1.30
2018-12-24T21:18:46.056Z,1.07
2018-12-24T21:21:16.400Z,0.90
2018-12-24T21:23:45.901Z,0.80
2018-12-24T21:26:15.606Z,1.20
2018-12-24T21:28:44.935Z,1.07
2018-12-24T21:31:14.759Z,1.10
2018-12-24T21:33:43.906Z,0.80
2018-12-24T21:36:13.206Z,0.97
2018-12-24T21:38:42.784Z,0.70
2018-12-24T21:41:11.939Z,0.80
2018-12-24T21:43:41.171Z,0.93
2018-12-24T21:46:10.638Z,0.97
2018-12-24T21:48:40.404Z,0.70
2018-12-24T21:51:09.799Z,0.97
2018-12-24T21:53:38.997Z,0.90
2018-12-24T21:56:08.181Z,0.80
2018-12-24T21:58:37.583Z,1.03
2018-12-24T22:01:07.002Z,0.70
2018-12-24T22:03:36.111Z,0.80
2018-12-24T22:06:05.421Z,0.70
2018-12-24T22:08:34.724Z,1.00
2018-12-24T22:11:03.879Z,1.07
2018-12-24T22:13:33.079Z,1.00
2018-12-24T22:16:02.412Z,1.10
2018-12-24T22:18:32.303Z,1.10
2018-12-24T22:21:01.955Z,1.00
2018-12-24T22:23:31.165Z,0.80
2018-12-24T22:26:00.518Z,1.00
2018-12-24T22:28:29.695Z,1.00
2018-12-24T22:30:59.086Z,0.97
2018-12-24T22:33:28.225Z,1.00
2018-12-24T22:35:57.355Z,1.00
2018-12-24T22:38:26.767Z,0.93
2018-12-24T22:40:55.882Z,1.00
2018-12-24T22:43:25.154Z,1.00
2018-12-24T22:45:54.473Z,1.10
2018-12-24T22:48:23.707Z,2.07
2018-12-24T22:50:52.884Z,0.83
2018-12-24T22:53:22.045Z,1.33
2018-12-24T22:55:51.155Z,1.03
2018-12-24T22:58:20.361Z,0.93
2018-12-24T23:00:49.922Z,0.83
2018-12-24T23:03:19.213Z,1.10
2018-12-24T23:05:48.532Z,1.00
2018-12-24T23:08:17.817Z,1.10
2018-12-24T23:10:46.944Z,1.13
2018-12-24T23:13:16.090Z,1.23
2018-12-24T23:15:45.261Z,1.30
2018-12-24T23:18:14.492Z,0.90
2018-12-24T23:20:45.820Z,1.37
2018-12-24T23:23:15.108Z,1.23
2018-12-24T23:25:44.289Z,1.10
2018-12-24T23:28:13.498Z,1.30
2018-12-24T23:30:42.893Z,1.00
2018-12-24T23:33:12.065Z,0.87
2018-12-24T23:35:41.198Z,1.20
2018-12-24T23:38:10.559Z,1.47
2018-12-24T23:40:39.653Z,1.10
2018-12-24T23:43:09.016Z,1.20
2018-12-24T23:45:38.272Z,1.73
2018-12-24T23:48:07.455Z,1.13
2018-12-24T23:50:36.709Z,0.90
2018-12-24T23:53:05.978Z,1.40
2018-12-24T23:55:35.108Z,0.90
2018-12-24T23:58:04.344Z,0.90
